Theologos P . — SZNB — position and weather

sailwx.info

Track history (hours):
 
Tides and Currents Weather Stations Pressure Air Temp Water Temp Dewpoint Dewpoint Depression Visibility Wind Speed Wind Dir Waves Ship Positions

Theologos P .

Last reported at 2017-Mar-28 09:16 UTC. Time now 2017-Mar-28 13:51 UTC.
Position N 38°01' E 024°01'.

Length 118 m; draft 4.4 m.

Type: Passenger vessel. MMSI: 240521000.

Date/timePositionNaut miles runAvg speedWind from/ knotsBaromVisibWave heightAir tempDewpointWater temp
2017-Mar-28 09:16N 38°01' E 024°01'1317.7
2017-Mar-28 08:33N 37°57' E 024°16'4715.8
2017-Mar-28 05:33N 37°33' E 025°07'1111.0
2017-Mar-28 04:33N 37°28' E 025°20'0 0.0
2017-Mar-28 03:33N 37°28' E 025°20'0 0.0
2017-Mar-28 02:33N 37°28' E 025°20'0 0.0
2017-Mar-28 01:33N 37°28' E 025°20'0 0.0
2017-Mar-28 00:33N 37°28' E 025°20'0 0.0
2017-Mar-27 23:33N 37°28' E 025°20'0 0.0
2017-Mar-27 22:33N 37°28' E 025°20'0 0.0
2017-Mar-27 21:33N 37°28' E 025°20'0 0.0
2017-Mar-27 20:33N 37°28' E 025°20'0 0.1
2017-Mar-27 19:33N 37°28' E 025°20'9 9.3
2017-Mar-27 18:33N 37°32' E 025°09'1817.0
2017-Mar-27 17:29N 37°44' E 024°52'1111.4
2017-Mar-27 16:33N 37°52' E 024°43'35 4.8
2017-Mar-27 09:20N 38°01' E 024°01'1417.8
2017-Mar-27 08:32N 37°57' E 024°18'4515.3
2017-Mar-27 05:33N 37°33' E 025°07'1111.3
2017-Mar-27 04:34N 37°28' E 025°20'0 0.0
2017-Mar-27 03:33N 37°28' E 025°20'0 0.0
2017-Mar-27 02:34N 37°28' E 025°20'0 0.0
2017-Mar-27 01:34N 37°28' E 025°20'0 0.0
2017-Mar-27 00:34N 37°28' E 025°20'0 0.0
2017-Mar-26 23:33N 37°28' E 025°20'0 0.0
2017-Mar-26 22:34N 37°28' E 025°20'0 0.0
2017-Mar-26 21:33N 37°28' E 025°20'0 0.0
2017-Mar-26 20:34N 37°28' E 025°20'1 1.2
2017-Mar-26 19:33N 37°28' E 025°18'1313.3
2017-Mar-26 18:34N 37°34' E 025°04'1918.7
2017-Mar-26 17:33N 37°48' E 024°47'1211.6
2017-Mar-26 16:33N 37°53' E 024°34'2118.8
2017-Mar-26 15:25N 37°59' E 024°08'6 6.7
2017-Mar-26 14:30N 38°01' E 024°01'1717.9
2017-Mar-26 13:32N 37°56' E 024°22'3214.3
2017-Mar-26 11:18N 37°40' E 024°57'1216.7
2017-Mar-26 10:33N 37°32' E 025°09'9 9.3
2017-Mar-26 09:33N 37°28' E 025°20'0 0.0
2017-Mar-26 08:33N 37°28' E 025°20'0 0.0
2017-Mar-26 07:33N 37°28' E 025°20'0 0.0
2017-Mar-26 06:33N 37°28' E 025°20'0 0.0
2017-Mar-26 05:33N 37°28' E 025°20'0 0.0
2017-Mar-26 04:33N 37°28' E 025°20'0 0.0
2017-Mar-26 03:33N 37°28' E 025°20'0 0.0
2017-Mar-26 02:33N 37°28' E 025°20'0 0.0
2017-Mar-26 01:33N 37°28' E 025°20'0 0.0
2017-Mar-26 00:33N 37°28' E 025°20'0 0.0
2017-Mar-25 23:33N 37°28' E 025°20'0 0.0
2017-Mar-25 22:33N 37°28' E 025°20'0 0.0
2017-Mar-25 21:33N 37°28' E 025°20'2 1.7
2017-Mar-25 20:34N 37°28' E 025°18'1413.5
2017-Mar-25 19:33N 37°35' E 025°03'5015.9
2017-Mar-25 16:27N 37°59' E 024°08'6 6.4
2017-Mar-25 15:29N 38°01' E 024°01'1818.1
2017-Mar-25 14:30N 37°56' E 024°22'3314.7
2017-Mar-25 12:15N 37°39' E 024°58'1116.3
2017-Mar-25 11:34N 37°32' E 025°09'9 9.3
2017-Mar-25 10:34N 37°28' E 025°20'0 0.0
2017-Mar-25 09:34N 37°28' E 025°20'0 0.0
2017-Mar-25 08:33N 37°28' E 025°20'0 0.0
2017-Mar-25 07:34N 37°28' E 025°20'0 0.0
2017-Mar-25 06:33N 37°28' E 025°20'0 0.0
2017-Mar-25 05:33N 37°28' E 025°20'0 0.0
2017-Mar-25 04:33N 37°28' E 025°20'0 0.0
2017-Mar-25 03:33N 37°28' E 025°20'0 0.0
2017-Mar-25 02:33N 37°28' E 025°20'0 0.0
2017-Mar-25 01:33N 37°28' E 025°20'0 0.0
2017-Mar-25 00:33N 37°28' E 025°20'0 0.0
2017-Mar-24 23:33N 37°28' E 025°20'0 0.0
2017-Mar-24 22:33N 37°28' E 025°20'3 2.8
2017-Mar-24 21:34N 37°29' E 025°16'1010.3
2017-Mar-24 20:33N 37°34' E 025°05'5115.1
2017-Mar-24 17:08N 37°60' E 024°09'6 3.1
2017-Mar-24 15:03N 38°01' E 024°01'917.3
2017-Mar-24 14:34N 37°59' E 024°11'3915.7
2017-Mar-24 12:04N 37°41' E 024°55'1018.9
2017-Mar-24 11:33N 37°34' E 025°04'1313.4
2017-Mar-24 10:34N 37°28' E 025°19'7 7.3
2017-Mar-24 09:34N 37°31' E 025°11'1414.0
2017-Mar-24 08:34N 37°40' E 024°57'4816.0
2017-Mar-24 05:34N 38°01' E 024°02'1 0.3
2017-Mar-24 01:31N 38°01' E 024°01'1717.3
2017-Mar-24 00:33N 37°55' E 024°20'1818.2
2017-Mar-23 23:33N 37°49' E 024°42'1919.0
2017-Mar-23 22:33N 37°36' E 024°59'1817.9
2017-Mar-23 21:33N 37°28' E 025°19'0 0.3
2017-Mar-23 20:33N 37°28' E 025°19'1211.6
2017-Mar-23 19:34N 37°33' E 025°06'1918.6
2017-Mar-23 18:33N 37°46' E 024°49'9 8.6
2017-Mar-23 17:34N 37°52' E 024°41'1817.6
2017-Mar-23 16:34N 37°57' E 024°19'15 2.4
2017-Mar-23 10:14N 38°01' E 024°01'1318.5
2017-Mar-23 09:33N 37°57' E 024°16'3515.0
2017-Mar-23 07:15N 37°41' E 024°55'1318.8
2017-Mar-23 06:33N 37°33' E 025°07'1111.0
2017-Mar-23 05:33N 37°28' E 025°20'0 0.0
2017-Mar-23 04:33N 37°28' E 025°20'0 0.0
2017-Mar-23 03:33N 37°28' E 025°20'0 0.0
2017-Mar-23 02:33N 37°28' E 025°20'0 0.0
2017-Mar-23 01:33N 37°28' E 025°20'0 0.0
2017-Mar-23 00:33N 37°28' E 025°20'0 0.0
2017-Mar-22 23:33N 37°28' E 025°20'0 0.0
2017-Mar-22 22:33N 37°28' E 025°20'0 0.0
2017-Mar-22 21:33N 37°28' E 025°20'0 0.0
2017-Mar-22 20:33N 37°28' E 025°20'9 9.3
2017-Mar-22 19:33N 37°32' E 025°09'1616.4
2017-Mar-22 18:33N 37°43' E 024°53'1212.1
2017-Mar-22 17:32N 37°52' E 024°44'1817.8
2017-Mar-22 16:32N 37°56' E 024°22'17 2.6
2017-Mar-22 10:09N 38°01' E 024°01'1119.0
2017-Mar-22 09:33N 37°57' E 024°15'4816.1
2017-Mar-22 06:33N 37°33' E 025°07'1110.9
2017-Mar-22 05:33N 37°28' E 025°20'0 0.0
2017-Mar-22 04:33N 37°28' E 025°20'0 0.0
2017-Mar-22 03:33N 37°28' E 025°20'0 0.0
2017-Mar-22 02:33N 37°28' E 025°20'0 0.0
2017-Mar-22 01:33N 37°28' E 025°20'0 0.0
2017-Mar-22 00:33N 37°28' E 025°20'0 0.0
2017-Mar-21 23:33N 37°28' E 025°20'0 0.0
2017-Mar-21 22:33N 37°28' E 025°20'0 0.0
2017-Mar-21 21:33N 37°28' E 025°20'0 0.0
2017-Mar-21 20:33N 37°28' E 025°20'9 9.2
2017-Mar-21 19:33N 37°32' E 025°09'1615.9
2017-Mar-21 18:32N 37°42' E 024°53'1313.1
2017-Mar-21 17:33N 37°53' E 024°44'1717.3
2017-Mar-21 16:33N 37°56' E 024°23'33 3.5
2017-Mar-21 07:03N 37°38' E 024°58'919.1
2017-Mar-21 06:34N 37°33' E 025°07'1110.8
2017-Mar-21 05:33N 37°28' E 025°20'0 0.0
2017-Mar-21 04:33N 37°28' E 025°20'0 0.0
2017-Mar-21 03:33N 37°28' E 025°20'0 0.0
2017-Mar-21 02:33N 37°28' E 025°20'0 0.0
2017-Mar-21 01:33N 37°28' E 025°20'0 0.0
2017-Mar-21 00:33N 37°28' E 025°20'0 0.0
2017-Mar-20 23:33N 37°28' E 025°20'0 0.0
2017-Mar-20 22:33N 37°28' E 025°20'0 0.0
2017-Mar-20 21:33N 37°28' E 025°20'0 0.0
2017-Mar-20 20:33N 37°28' E 025°20'9 9.3
2017-Mar-20 19:34N 37°32' E 025°09'14 1.1
2017-Mar-20 07:10N 37°40' E 024°55'1219.2
2017-Mar-20 06:34N 37°33' E 025°07'1111.2
2017-Mar-20 05:33N 37°28' E 025°20'0 0.0
2017-Mar-20 04:33N 37°28' E 025°20'0 0.0
2017-Mar-20 03:33N 37°28' E 025°20'0 0.0
2017-Mar-20 02:33N 37°28' E 025°20'0 0.0
2017-Mar-20 01:33N 37°28' E 025°20'0 0.0
2017-Mar-20 00:33N 37°28' E 025°20'0 0.0
2017-Mar-19 23:33N 37°28' E 025°20'0 0.0
2017-Mar-19 22:33N 37°28' E 025°20'0 0.0
2017-Mar-19 21:33N 37°28' E 025°20'1 0.5
2017-Mar-19 20:34N 37°28' E 025°19'1414.2
2017-Mar-19 19:33N 37°35' E 025°03'1918.8
2017-Mar-19 18:33N 37°48' E 024°46'1211.8
2017-Mar-19 17:33N 37°53' E 024°33'1918.9
2017-Mar-19 16:33N 37°59' E 024°10'7 6.2
2017-Mar-19 15:24N 38°01' E 024°02'1618.8
2017-Mar-19 14:33N 37°56' E 024°21'3414.6
2017-Mar-19 12:16N 37°39' E 024°58'1116.2
2017-Mar-19 11:33N 37°32' E 025°09'9 9.3
2017-Mar-19 10:34N 37°28' E 025°20'0 0.0
2017-Mar-19 09:33N 37°28' E 025°20'0 0.0
2017-Mar-19 08:34N 37°28' E 025°20'0 0.0
2017-Mar-19 07:33N 37°28' E 025°20'0 0.0
2017-Mar-19 06:34N 37°28' E 025°20'0 0.0
2017-Mar-19 05:34N 37°28' E 025°20'0 0.0
2017-Mar-19 04:34N 37°28' E 025°20'0 0.0
2017-Mar-19 03:33N 37°28' E 025°20'0 0.0
2017-Mar-19 02:33N 37°28' E 025°20'0 0.0
2017-Mar-19 01:33N 37°28' E 025°20'0 0.0
2017-Mar-19 00:33N 37°28' E 025°20'0 0.0
2017-Mar-18 23:34N 37°28' E 025°20'0 0.0
2017-Mar-18 22:34N 37°28' E 025°20'0 0.0
2017-Mar-18 21:33N 37°28' E 025°20'0 0.0
2017-Mar-18 20:34N 37°28' E 025°20'9 9.2
2017-Mar-18 19:33N 37°32' E 025°09'1616.0
2017-Mar-18 18:33N 37°42' E 024°53'6 0.8
2017-Mar-18 11:23N 37°38' E 024°59'1112.8
2017-Mar-18 10:33N 37°32' E 025°09'9 9.2
2017-Mar-18 09:33N 37°28' E 025°20'  
Track history (hours):
 
Tides and Currents Weather Stations Pressure Air Temp Water Temp Dewpoint Dewpoint Depression Visibility Wind Speed Wind Dir Waves Ship Positions

Theologos P .

Last reported at 2017-Mar-28 09:16 UTC. Time now 2017-Mar-28 13:51 UTC.
Position N 38°01' E 024°01'.

Length 118 m; draft 4.4 m.

Type: Passenger vessel. MMSI: 240521000.

Date/timePositionNaut miles runAvg speedWind from/ knotsBaromVisibWave heightAir tempDewpointWater temp
2017-Mar-28 09:16N 38°01' E 024°01'1317.7
2017-Mar-28 08:33N 37°57' E 024°16'4715.8
2017-Mar-28 05:33N 37°33' E 025°07'1111.0
2017-Mar-28 04:33N 37°28' E 025°20'0 0.0
2017-Mar-28 03:33N 37°28' E 025°20'0 0.0
2017-Mar-28 02:33N 37°28' E 025°20'0 0.0
2017-Mar-28 01:33N 37°28' E 025°20'0 0.0
2017-Mar-28 00:33N 37°28' E 025°20'0 0.0
2017-Mar-27 23:33N 37°28' E 025°20'0 0.0
2017-Mar-27 22:33N 37°28' E 025°20'0 0.0
2017-Mar-27 21:33N 37°28' E 025°20'0 0.0
2017-Mar-27 20:33N 37°28' E 025°20'0 0.1
2017-Mar-27 19:33N 37°28' E 025°20'9 9.3
2017-Mar-27 18:33N 37°32' E 025°09'1817.0
2017-Mar-27 17:29N 37°44' E 024°52'1111.4
2017-Mar-27 16:33N 37°52' E 024°43'35 4.8
2017-Mar-27 09:20N 38°01' E 024°01'1417.8
2017-Mar-27 08:32N 37°57' E 024°18'4515.3
2017-Mar-27 05:33N 37°33' E 025°07'1111.3
2017-Mar-27 04:34N 37°28' E 025°20'0 0.0
2017-Mar-27 03:33N 37°28' E 025°20'0 0.0
2017-Mar-27 02:34N 37°28' E 025°20'0 0.0
2017-Mar-27 01:34N 37°28' E 025°20'0 0.0
2017-Mar-27 00:34N 37°28' E 025°20'0 0.0
2017-Mar-26 23:33N 37°28' E 025°20'0 0.0
2017-Mar-26 22:34N 37°28' E 025°20'0 0.0
2017-Mar-26 21:33N 37°28' E 025°20'0 0.0
2017-Mar-26 20:34N 37°28' E 025°20'1 1.2
2017-Mar-26 19:33N 37°28' E 025°18'1313.3
2017-Mar-26 18:34N 37°34' E 025°04'1918.7
2017-Mar-26 17:33N 37°48' E 024°47'1211.6
2017-Mar-26 16:33N 37°53' E 024°34'2118.8
2017-Mar-26 15:25N 37°59' E 024°08'6 6.7
2017-Mar-26 14:30N 38°01' E 024°01'1717.9
2017-Mar-26 13:32N 37°56' E 024°22'3214.3
2017-Mar-26 11:18N 37°40' E 024°57'1216.7
2017-Mar-26 10:33N 37°32' E 025°09'9 9.3
2017-Mar-26 09:33N 37°28' E 025°20'0 0.0
2017-Mar-26 08:33N 37°28' E 025°20'0 0.0
2017-Mar-26 07:33N 37°28' E 025°20'0 0.0
2017-Mar-26 06:33N 37°28' E 025°20'0 0.0
2017-Mar-26 05:33N 37°28' E 025°20'0 0.0
2017-Mar-26 04:33N 37°28' E 025°20'0 0.0
2017-Mar-26 03:33N 37°28' E 025°20'0 0.0
2017-Mar-26 02:33N 37°28' E 025°20'0 0.0
2017-Mar-26 01:33N 37°28' E 025°20'0 0.0
2017-Mar-26 00:33N 37°28' E 025°20'0 0.0
2017-Mar-25 23:33N 37°28' E 025°20'0 0.0
2017-Mar-25 22:33N 37°28' E 025°20'0 0.0
2017-Mar-25 21:33N 37°28' E 025°20'2 1.7
2017-Mar-25 20:34N 37°28' E 025°18'1413.5
2017-Mar-25 19:33N 37°35' E 025°03'5015.9
2017-Mar-25 16:27N 37°59' E 024°08'6 6.4
2017-Mar-25 15:29N 38°01' E 024°01'1818.1
2017-Mar-25 14:30N 37°56' E 024°22'3314.7
2017-Mar-25 12:15N 37°39' E 024°58'1116.3
2017-Mar-25 11:34N 37°32' E 025°09'9 9.3
2017-Mar-25 10:34N 37°28' E 025°20'0 0.0
2017-Mar-25 09:34N 37°28' E 025°20'0 0.0
2017-Mar-25 08:33N 37°28' E 025°20'0 0.0
2017-Mar-25 07:34N 37°28' E 025°20'0 0.0
2017-Mar-25 06:33N 37°28' E 025°20'0 0.0
2017-Mar-25 05:33N 37°28' E 025°20'0 0.0
2017-Mar-25 04:33N 37°28' E 025°20'0 0.0
2017-Mar-25 03:33N 37°28' E 025°20'0 0.0
2017-Mar-25 02:33N 37°28' E 025°20'0 0.0
2017-Mar-25 01:33N 37°28' E 025°20'0 0.0
2017-Mar-25 00:33N 37°28' E 025°20'0 0.0
2017-Mar-24 23:33N 37°28' E 025°20'0 0.0
2017-Mar-24 22:33N 37°28' E 025°20'3 2.8
2017-Mar-24 21:34N 37°29' E 025°16'1010.3
2017-Mar-24 20:33N 37°34' E 025°05'5115.1
2017-Mar-24 17:08N 37°60' E 024°09'6 3.1
2017-Mar-24 15:03N 38°01' E 024°01'917.3
2017-Mar-24 14:34N 37°59' E 024°11'3915.7
2017-Mar-24 12:04N 37°41' E 024°55'1018.9
2017-Mar-24 11:33N 37°34' E 025°04'1313.4
2017-Mar-24 10:34N 37°28' E 025°19'7 7.3
2017-Mar-24 09:34N 37°31' E 025°11'1414.0
2017-Mar-24 08:34N 37°40' E 024°57'4816.0
2017-Mar-24 05:34N 38°01' E 024°02'1 0.3
2017-Mar-24 01:31N 38°01' E 024°01'1717.3
2017-Mar-24 00:33N 37°55' E 024°20'1818.2
2017-Mar-23 23:33N 37°49' E 024°42'1919.0
2017-Mar-23 22:33N 37°36' E 024°59'1817.9
2017-Mar-23 21:33N 37°28' E 025°19'0 0.3
2017-Mar-23 20:33N 37°28' E 025°19'1211.6
2017-Mar-23 19:34N 37°33' E 025°06'1918.6
2017-Mar-23 18:33N 37°46' E 024°49'9 8.6
2017-Mar-23 17:34N 37°52' E 024°41'1817.6
2017-Mar-23 16:34N 37°57' E 024°19'15 2.4
2017-Mar-23 10:14N 38°01' E 024°01'1318.5
2017-Mar-23 09:33N 37°57' E 024°16'3515.0
2017-Mar-23 07:15N 37°41' E 024°55'1318.8
2017-Mar-23 06:33N 37°33' E 025°07'1111.0
2017-Mar-23 05:33N 37°28' E 025°20'0 0.0
2017-Mar-23 04:33N 37°28' E 025°20'0 0.0
2017-Mar-23 03:33N 37°28' E 025°20'0 0.0
2017-Mar-23 02:33N 37°28' E 025°20'0 0.0
2017-Mar-23 01:33N 37°28' E 025°20'0 0.0
2017-Mar-23 00:33N 37°28' E 025°20'0 0.0
2017-Mar-22 23:33N 37°28' E 025°20'0 0.0
2017-Mar-22 22:33N 37°28' E 025°20'0 0.0
2017-Mar-22 21:33N 37°28' E 025°20'0 0.0
2017-Mar-22 20:33N 37°28' E 025°20'9 9.3
2017-Mar-22 19:33N 37°32' E 025°09'1616.4
2017-Mar-22 18:33N 37°43' E 024°53'1212.1
2017-Mar-22 17:32N 37°52' E 024°44'1817.8
2017-Mar-22 16:32N 37°56' E 024°22'17 2.6
2017-Mar-22 10:09N 38°01' E 024°01'1119.0
2017-Mar-22 09:33N 37°57' E 024°15'4816.1
2017-Mar-22 06:33N 37°33' E 025°07'1110.9
2017-Mar-22 05:33N 37°28' E 025°20'0 0.0
2017-Mar-22 04:33N 37°28' E 025°20'0 0.0
2017-Mar-22 03:33N 37°28' E 025°20'0 0.0
2017-Mar-22 02:33N 37°28' E 025°20'0 0.0
2017-Mar-22 01:33N 37°28' E 025°20'0 0.0
2017-Mar-22 00:33N 37°28' E 025°20'0 0.0
2017-Mar-21 23:33N 37°28' E 025°20'0 0.0
2017-Mar-21 22:33N 37°28' E 025°20'0 0.0
2017-Mar-21 21:33N 37°28' E 025°20'0 0.0
2017-Mar-21 20:33N 37°28' E 025°20'9 9.2
2017-Mar-21 19:33N 37°32' E 025°09'1615.9
2017-Mar-21 18:32N 37°42' E 024°53'1313.1
2017-Mar-21 17:33N 37°53' E 024°44'1717.3
2017-Mar-21 16:33N 37°56' E 024°23'33 3.5
2017-Mar-21 07:03N 37°38' E 024°58'919.1
2017-Mar-21 06:34N 37°33' E 025°07'1110.8
2017-Mar-21 05:33N 37°28' E 025°20'0 0.0
2017-Mar-21 04:33N 37°28' E 025°20'0 0.0
2017-Mar-21 03:33N 37°28' E 025°20'0 0.0
2017-Mar-21 02:33N 37°28' E 025°20'0 0.0
2017-Mar-21 01:33N 37°28' E 025°20'0 0.0
2017-Mar-21 00:33N 37°28' E 025°20'0 0.0
2017-Mar-20 23:33N 37°28' E 025°20'0 0.0
2017-Mar-20 22:33N 37°28' E 025°20'0 0.0
2017-Mar-20 21:33N 37°28' E 025°20'0 0.0
2017-Mar-20 20:33N 37°28' E 025°20'9 9.3
2017-Mar-20 19:34N 37°32' E 025°09'14 1.1
2017-Mar-20 07:10N 37°40' E 024°55'1219.2
2017-Mar-20 06:34N 37°33' E 025°07'1111.2
2017-Mar-20 05:33N 37°28' E 025°20'0 0.0
2017-Mar-20 04:33N 37°28' E 025°20'0 0.0
2017-Mar-20 03:33N 37°28' E 025°20'0 0.0
2017-Mar-20 02:33N 37°28' E 025°20'0 0.0
2017-Mar-20 01:33N 37°28' E 025°20'0 0.0
2017-Mar-20 00:33N 37°28' E 025°20'0 0.0
2017-Mar-19 23:33N 37°28' E 025°20'0 0.0
2017-Mar-19 22:33N 37°28' E 025°20'0 0.0
2017-Mar-19 21:33N 37°28' E 025°20'1 0.5
2017-Mar-19 20:34N 37°28' E 025°19'1414.2
2017-Mar-19 19:33N 37°35' E 025°03'1918.8
2017-Mar-19 18:33N 37°48' E 024°46'1211.8
2017-Mar-19 17:33N 37°53' E 024°33'1918.9
2017-Mar-19 16:33N 37°59' E 024°10'7 6.2
2017-Mar-19 15:24N 38°01' E 024°02'1618.8
2017-Mar-19 14:33N 37°56' E 024°21'3414.6
2017-Mar-19 12:16N 37°39' E 024°58'1116.2
2017-Mar-19 11:33N 37°32' E 025°09'9 9.3
2017-Mar-19 10:34N 37°28' E 025°20'0 0.0
2017-Mar-19 09:33N 37°28' E 025°20'0 0.0
2017-Mar-19 08:34N 37°28' E 025°20'0 0.0
2017-Mar-19 07:33N 37°28' E 025°20'0 0.0
2017-Mar-19 06:34N 37°28' E 025°20'0 0.0
2017-Mar-19 05:34N 37°28' E 025°20'0 0.0
2017-Mar-19 04:34N 37°28' E 025°20'0 0.0
2017-Mar-19 03:33N 37°28' E 025°20'0 0.0
2017-Mar-19 02:33N 37°28' E 025°20'0 0.0
2017-Mar-19 01:33N 37°28' E 025°20'0 0.0
2017-Mar-19 00:33N 37°28' E 025°20'0 0.0
2017-Mar-18 23:34N 37°28' E 025°20'0 0.0
2017-Mar-18 22:34N 37°28' E 025°20'0 0.0
2017-Mar-18 21:33N 37°28' E 025°20'0 0.0
2017-Mar-18 20:34N 37°28' E 025°20'9 9.2
2017-Mar-18 19:33N 37°32' E 025°09'1616.0
2017-Mar-18 18:33N 37°42' E 024°53'6 0.8
2017-Mar-18 11:23N 37°38' E 024°59'1112.8
2017-Mar-18 10:33N 37°32' E 025°09'9 9.2
2017-Mar-18 09:33N 37°28' E 025°20'  

Dump ship's entire track history